createdAt,value
2022-09-24T00:01:29.782Z,2.87
2022-09-24T00:04:02.919Z,2.92
2022-09-24T00:06:36.664Z,2.15
2022-09-24T00:09:04.070Z,1.70
2022-09-24T00:11:31.669Z,2.03
2022-09-24T00:13:59.694Z,2.17
2022-09-24T00:16:29.109Z,1.92
2022-09-24T00:18:56.172Z,5.10
2022-09-24T00:21:28.654Z,2.47
2022-09-24T00:23:58.518Z,2.15
2022-09-24T00:26:44.734Z,2.45
2022-09-24T00:29:14.414Z,1.92
2022-09-24T00:31:41.860Z,2.17
2022-09-24T00:34:09.032Z,1.90
2022-09-24T00:36:37.127Z,2.15
2022-09-24T00:39:05.042Z,4.55
2022-09-24T00:41:34.442Z,2.92
2022-09-24T00:44:02.197Z,2.30
2022-09-24T00:46:34.148Z,2.30
2022-09-24T00:49:04.796Z,3.70
2022-09-24T00:51:32.997Z,2.87
2022-09-24T00:54:04.524Z,3.00
2022-09-24T00:56:36.540Z,2.45
2022-09-24T00:59:05.124Z,3.10
2022-09-24T01:01:32.826Z,1.40
2022-09-24T01:04:00.909Z,21.98
2022-09-24T01:06:28.081Z,4.25
2022-09-24T01:08:56.908Z,3.50
2022-09-24T01:11:49.413Z,2.17
2022-09-24T01:14:32.956Z,2.65
2022-09-24T01:17:31.050Z,2.97
2022-09-24T01:20:22.929Z,4.95
2022-09-24T01:23:11.642Z,3.53
2022-09-24T01:25:54.650Z,2.25
2022-09-24T01:28:37.641Z,3.58
2022-09-24T01:31:16.840Z,3.47
2022-09-24T01:33:46.559Z,2.95
2022-09-24T01:36:15.899Z,3.47
2022-09-24T01:38:44.782Z,4.18
2022-09-24T01:41:13.675Z,2.25
2022-09-24T01:43:41.013Z,2.62
2022-09-24T01:46:08.469Z,6.32
2022-09-24T01:48:39.499Z,2.87
2022-09-24T01:51:55.866Z,2.72
2022-09-24T01:54:26.655Z,5.25
2022-09-24T01:57:02.070Z,3.42
2022-09-24T01:59:33.129Z,4.35
2022-09-24T02:02:09.100Z,3.55
2022-09-24T02:04:42.476Z,5.43
2022-09-24T02:07:23.202Z,3.17
2022-09-24T02:09:50.631Z,2.40
2022-09-24T02:12:24.015Z,3.67
2022-09-24T02:14:58.050Z,3.85
2022-09-24T02:17:27.891Z,4.32
2022-09-24T02:19:57.098Z,4.68
2022-09-24T02:22:24.372Z,4.37
2022-09-24T02:24:54.475Z,3.08
2022-09-24T02:27:22.023Z,5.07
2022-09-24T02:29:51.713Z,5.32
2022-09-24T02:32:19.260Z,3.90
2022-09-24T02:34:51.922Z,6.35
2022-09-24T02:37:20.433Z,6.60
2022-09-24T02:39:48.282Z,6.68
2022-09-24T02:42:15.829Z,5.10
2022-09-24T02:44:42.856Z,6.90
2022-09-24T02:47:10.162Z,7.30
2022-09-24T02:49:37.131Z,7.97
2022-09-24T02:52:04.642Z,9.40
2022-09-24T02:54:31.930Z,10.55
2022-09-24T02:56:59.042Z,9.35
2022-09-24T02:59:26.026Z,6.93
2022-09-24T03:01:53.469Z,8.38
2022-09-24T03:04:20.568Z,9.65
2022-09-24T03:06:47.602Z,9.13
2022-09-24T03:09:15.029Z,9.93
2022-09-24T03:11:42.059Z,7.80
2022-09-24T03:14:09.196Z,5.97
2022-09-24T03:16:36.644Z,7.00
2022-09-24T03:19:03.734Z,7.60
2022-09-24T03:21:30.777Z,8.93
2022-09-24T03:23:58.104Z,8.85
2022-09-24T03:26:25.273Z,11.05
2022-09-24T03:28:52.430Z,8.30
2022-09-24T03:31:19.744Z,13.20
2022-09-24T03:33:49.068Z,9.48
2022-09-24T03:36:24.487Z,8.15
2022-09-24T03:38:55.394Z,8.82
2022-09-24T03:41:23.486Z,7.93
2022-09-24T03:43:50.577Z,6.85
2022-09-24T03:46:18.870Z,11.55
2022-09-24T03:48:47.344Z,10.88
2022-09-24T03:51:18.562Z,8.05
2022-09-24T03:53:47.000Z,6.55
2022-09-24T03:56:14.264Z,6.35
2022-09-24T03:58:41.918Z,6.43
2022-09-24T04:01:12.110Z,12.43
2022-09-24T04:03:40.513Z,9.68
2022-09-24T04:06:07.864Z,7.72
2022-09-24T04:08:34.990Z,12.13
2022-09-24T04:11:02.349Z,8.65
2022-09-24T04:13:29.423Z,18.15
2022-09-24T04:15:56.669Z,8.05
2022-09-24T04:18:23.953Z,9.63
2022-09-24T04:20:50.922Z,7.80
2022-09-24T04:23:17.934Z,8.68
2022-09-24T04:25:45.194Z,8.95
2022-09-24T04:28:12.372Z,12.85
2022-09-24T04:30:40.341Z,6.68
2022-09-24T04:33:07.824Z,9.32
2022-09-24T04:35:38.404Z,8.32
2022-09-24T04:38:05.667Z,8.43
2022-09-24T04:40:33.024Z,9.73
2022-09-24T04:43:00.101Z,8.63
2022-09-24T04:45:27.175Z,7.60
2022-09-24T04:47:57.816Z,11.80
2022-09-24T04:50:27.407Z,10.20
2022-09-24T04:52:55.940Z,7.70
2022-09-24T04:55:24.080Z,8.48
2022-09-24T04:57:51.593Z,10.05
2022-09-24T05:00:20.906Z,11.63
2022-09-24T05:02:48.639Z,9.48
2022-09-24T05:05:15.718Z,13.38
2022-09-24T05:07:44.562Z,13.65
2022-09-24T05:10:11.801Z,13.13
2022-09-24T05:12:40.784Z,13.52
2022-09-24T05:15:08.486Z,16.77
2022-09-24T05:17:39.401Z,15.60
2022-09-24T05:20:07.763Z,16.73
2022-09-24T05:22:36.612Z,17.55
2022-09-24T05:25:03.799Z,19.42
2022-09-24T05:27:30.907Z,24.05
2022-09-24T05:29:58.243Z,21.45
2022-09-24T05:32:25.619Z,18.77
2022-09-24T05:34:53.476Z,23.85
2022-09-24T05:37:20.840Z,19.35
2022-09-24T05:39:47.818Z,23.30
2022-09-24T05:42:15.137Z,19.17
2022-09-24T05:44:48.640Z,25.10
2022-09-24T05:47:18.988Z,25.25
2022-09-24T05:49:46.261Z,22.33
2022-09-24T05:52:13.290Z,24.08
2022-09-24T05:54:40.299Z,21.60
2022-09-24T05:57:07.581Z,19.90
2022-09-24T05:59:34.544Z,23.70
2022-09-24T06:02:01.577Z,22.48
2022-09-24T06:04:28.908Z,20.33
2022-09-24T06:06:56.334Z,21.20
2022-09-24T06:09:23.310Z,17.83
2022-09-24T06:11:53.092Z,29.85
2022-09-24T06:14:20.427Z,24.27
2022-09-24T06:16:47.404Z,25.00
2022-09-24T06:19:14.698Z,19.52
2022-09-24T06:21:41.693Z,22.05
2022-09-24T06:24:08.699Z,23.30
2022-09-24T06:26:36.846Z,21.05
2022-09-24T06:29:05.190Z,25.80
2022-09-24T06:31:32.974Z,15.43
2022-09-24T06:34:00.557Z,18.25
2022-09-24T06:36:27.560Z,18.40
2022-09-24T06:38:54.608Z,18.55
2022-09-24T06:41:22.477Z,17.62
2022-09-24T06:43:49.445Z,17.20
2022-09-24T06:46:16.725Z,12.73
2022-09-24T06:48:44.089Z,14.73
2022-09-24T06:51:11.077Z,16.33
2022-09-24T06:53:38.468Z,13.73
2022-09-24T06:56:06.094Z,17.70
2022-09-24T06:58:34.001Z,17.10
2022-09-24T07:01:02.792Z,15.05
2022-09-24T07:03:32.081Z,25.25
2022-09-24T07:06:04.368Z,16.52
2022-09-24T07:08:32.542Z,14.75
2022-09-24T07:11:00.697Z,14.90
2022-09-24T07:13:27.951Z,16.30
2022-09-24T07:15:55.554Z,16.00
2022-09-24T07:18:23.098Z,20.45
2022-09-24T07:20:54.172Z,23.65
2022-09-24T07:23:21.985Z,18.02
2022-09-24T07:25:49.765Z,14.82
2022-09-24T07:28:17.109Z,18.37
2022-09-24T07:30:44.718Z,16.80
2022-09-24T07:33:11.769Z,18.20
2022-09-24T07:35:39.775Z,14.70
2022-09-24T07:38:11.954Z,19.62
2022-09-24T07:40:39.572Z,16.30
2022-09-24T07:43:12.340Z,14.90
2022-09-24T07:45:42.704Z,19.73
2022-09-24T07:48:11.179Z,15.48
2022-09-24T07:50:40.001Z,17.20
2022-09-24T07:53:07.052Z,19.98
2022-09-24T07:55:39.474Z,16.80
2022-09-24T07:58:08.647Z,18.52
2022-09-24T08:00:35.987Z,23.58
2022-09-24T08:03:03.899Z,24.60
2022-09-24T08:05:34.251Z,24.20
2022-09-24T08:08:01.499Z,18.50
2022-09-24T08:10:28.925Z,19.55
2022-09-24T08:12:58.959Z,19.17
2022-09-24T08:15:26.015Z,17.65
2022-09-24T08:17:53.462Z,18.55
2022-09-24T08:20:21.530Z,16.62
2022-09-24T08:22:48.643Z,17.60
2022-09-24T08:25:15.996Z,18.33
2022-09-24T08:27:42.976Z,14.05
2022-09-24T08:30:10.639Z,13.40
2022-09-24T08:32:37.948Z,15.60
2022-09-24T08:35:08.233Z,17.40
2022-09-24T08:37:35.345Z,18.25
2022-09-24T08:40:03.856Z,20.88
2022-09-24T08:42:39.206Z,13.30
2022-09-24T08:45:25.715Z,16.58
2022-09-24T08:48:02.078Z,16.20
2022-09-24T08:50:30.835Z,15.80
2022-09-24T08:53:14.911Z,18.77
2022-09-24T08:55:50.199Z,15.48
2022-09-24T08:58:29.045Z,13.73
2022-09-24T09:01:07.533Z,16.62
2022-09-24T09:04:06.437Z,20.27
2022-09-24T09:06:48.971Z,15.30
2022-09-24T09:09:19.575Z,14.73
2022-09-24T09:11:50.447Z,18.15
2022-09-24T09:14:20.625Z,16.55
2022-09-24T09:16:59.188Z,20.12
2022-09-24T09:19:30.100Z,15.70
2022-09-24T09:22:01.039Z,17.52
2022-09-24T09:24:42.180Z,17.25
2022-09-24T09:29:51.921Z,17.48
2022-09-24T09:32:57.346Z,15.55
2022-09-24T09:35:33.256Z,14.68
2022-09-24T09:38:24.517Z,15.88
2022-09-24T09:41:06.861Z,12.80
2022-09-24T09:43:35.337Z,13.90
2022-09-24T09:46:20.581Z,11.12
2022-09-24T09:48:54.298Z,12.68
2022-09-24T09:51:26.201Z,12.40
2022-09-24T09:53:58.884Z,13.55
2022-09-24T09:56:38.056Z,9.35
2022-09-24T09:59:23.522Z,11.85
2022-09-24T10:01:56.417Z,8.77
2022-09-24T10:04:35.806Z,7.62
2022-09-24T10:07:14.137Z,10.13
2022-09-24T10:09:43.234Z,8.52
2022-09-24T10:12:24.278Z,6.45
2022-09-24T10:15:12.348Z,6.47
2022-09-24T10:17:39.740Z,8.30
2022-09-24T10:20:17.254Z,19.12
2022-09-24T10:22:52.044Z,8.45
2022-09-24T10:25:24.570Z,10.40
2022-09-24T10:27:53.727Z,5.37
2022-09-24T10:30:36.150Z,13.35
2022-09-24T10:33:04.688Z,6.80
2022-09-24T10:35:35.856Z,7.10
2022-09-24T10:38:15.670Z,17.83
2022-09-24T10:40:42.963Z,6.35
2022-09-24T10:43:18.411Z,5.93
2022-09-24T10:46:01.729Z,2.65
2022-09-24T10:48:39.650Z,5.95
2022-09-24T10:51:29.829Z,4.25
2022-09-24T10:54:05.088Z,9.07
2022-09-24T10:56:46.130Z,5.15
2022-09-24T10:59:20.308Z,32.03
2022-09-24T11:02:12.203Z,6.05
2022-09-24T11:05:00.506Z,3.53
2022-09-24T11:07:31.257Z,4.43
2022-09-24T11:10:23.171Z,8.82
2022-09-24T11:13:16.719Z,8.05
2022-09-24T11:15:46.948Z,5.12
2022-09-24T11:18:52.039Z,4.57
2022-09-24T11:21:43.951Z,4.37
2022-09-24T11:24:26.129Z,4.32
2022-09-24T11:27:20.720Z,2.90
2022-09-24T11:29:50.669Z,2.35
2022-09-24T11:32:31.857Z,5.93
2022-09-24T11:35:17.539Z,7.37
2022-09-24T11:37:53.466Z,3.08
2022-09-24T11:40:40.268Z,4.30
2022-09-24T11:43:18.469Z,2.58
2022-09-24T11:46:04.120Z,4.43
2022-09-24T11:48:37.530Z,3.53
2022-09-24T11:51:41.893Z,3.42
2022-09-24T11:54:24.206Z,3.87
2022-09-24T11:57:00.960Z,5.97
2022-09-24T11:59:37.185Z,3.90
2022-09-24T12:02:25.118Z,3.33
2022-09-24T12:05:34.943Z,4.35
2022-09-24T12:08:14.191Z,5.37
2022-09-24T12:10:44.207Z,6.20
2022-09-24T12:13:20.370Z,2.83
2022-09-24T12:16:14.256Z,5.30
2022-09-24T12:18:52.632Z,4.60
2022-09-24T12:21:28.161Z,2.58
2022-09-24T12:24:03.222Z,2.87
2022-09-24T12:26:31.398Z,9.10
2022-09-24T12:29:21.974Z,3.50
2022-09-24T12:32:22.752Z,3.62
2022-09-24T12:35:00.663Z,4.47
2022-09-24T12:37:34.946Z,2.60
2022-09-24T12:40:37.124Z,5.47
2022-09-24T12:43:12.179Z,3.08
2022-09-24T12:45:39.239Z,3.83
2022-09-24T12:48:12.125Z,3.75
2022-09-24T12:50:39.665Z,3.50
2022-09-24T12:53:24.724Z,4.55
2022-09-24T12:55:52.716Z,10.80
2022-09-24T12:58:30.763Z,9.18
2022-09-24T13:01:08.355Z,5.95
2022-09-24T13:03:46.007Z,9.20
2022-09-24T13:06:23.173Z,8.35
2022-09-24T13:08:50.781Z,4.75
2022-09-24T13:11:33.493Z,5.87
2022-09-24T13:14:21.886Z,4.90
2022-09-24T13:16:51.160Z,5.03
2022-09-24T13:19:42.212Z,4.07
2022-09-24T13:22:26.665Z,4.82
2022-09-24T13:25:08.145Z,4.20
2022-09-24T13:27:41.417Z,4.97
2022-09-24T13:30:08.890Z,9.10
2022-09-24T13:32:58.776Z,3.08
2022-09-24T13:35:31.318Z,4.43
2022-09-24T13:38:36.506Z,5.50
2022-09-24T13:41:23.484Z,2.37
2022-09-24T13:44:15.918Z,9.02
2022-09-24T13:46:46.535Z,5.72
2022-09-24T13:49:19.180Z,2.78
2022-09-24T13:52:09.241Z,4.95
2022-09-24T13:54:42.752Z,3.22
2022-09-24T13:57:14.054Z,4.43
2022-09-24T13:59:41.063Z,3.67
2022-09-24T14:02:25.493Z,4.70
2022-09-24T14:04:58.179Z,4.10
2022-09-24T14:07:27.111Z,3.03
2022-09-24T14:10:13.219Z,4.68
2022-09-24T14:12:40.588Z,2.87
2022-09-24T14:15:26.233Z,3.35
2022-09-24T14:17:59.580Z,11.30
2022-09-24T14:20:30.514Z,8.32
2022-09-24T14:22:57.521Z,10.93
2022-09-24T14:25:29.554Z,4.45
2022-09-24T14:27:58.983Z,7.25
2022-09-24T14:30:27.731Z,5.45
2022-09-24T14:33:00.320Z,4.10
2022-09-24T14:35:32.709Z,5.43
2022-09-24T14:38:20.326Z,6.03
2022-09-24T14:40:51.413Z,3.62
2022-09-24T14:43:33.562Z,9.02
2022-09-24T14:46:25.824Z,5.57
2022-09-24T14:48:53.265Z,4.40
2022-09-24T14:51:26.802Z,4.70
2022-09-24T14:54:19.330Z,6.90
2022-09-24T14:56:46.762Z,5.18
2022-09-24T14:59:15.514Z,5.57
2022-09-24T15:01:43.206Z,8.15
2022-09-24T15:04:25.311Z,4.75
2022-09-24T15:06:55.146Z,4.37
2022-09-24T15:09:26.289Z,4.85
2022-09-24T15:11:55.332Z,5.93
2022-09-24T15:14:27.711Z,9.27
2022-09-24T15:16:55.113Z,6.45
2022-09-24T15:19:25.313Z,6.20
2022-09-24T15:21:55.519Z,5.47
2022-09-24T15:24:23.532Z,8.25
2022-09-24T15:27:05.188Z,4.80
2022-09-24T15:29:33.141Z,10.07
2022-09-24T15:32:00.296Z,7.15
2022-09-24T15:34:28.463Z,9.77
2022-09-24T15:36:59.332Z,9.02
2022-09-24T15:39:27.435Z,5.05
2022-09-24T15:41:54.791Z,5.82
2022-09-24T15:44:27.192Z,13.82
2022-09-24T15:46:57.039Z,4.20
2022-09-24T15:49:24.393Z,4.00
2022-09-24T15:51:55.073Z,12.77
2022-09-24T15:54:22.306Z,11.00
2022-09-24T15:56:52.664Z,4.90
2022-09-24T15:59:21.345Z,6.00
2022-09-24T16:01:49.879Z,11.93
2022-09-24T16:04:17.364Z,8.85
2022-09-24T16:06:44.399Z,6.45
2022-09-24T16:09:11.448Z,12.48
2022-09-24T16:11:38.917Z,9.77
2022-09-24T16:14:06.520Z,9.50
2022-09-24T16:16:33.618Z,10.45
2022-09-24T16:19:00.943Z,9.48
2022-09-24T16:21:27.958Z,5.50
2022-09-24T16:23:56.026Z,5.75
2022-09-24T16:26:23.643Z,6.05
2022-09-24T16:28:51.638Z,9.82
2022-09-24T16:31:19.577Z,7.65
2022-09-24T16:33:47.191Z,7.55
2022-09-24T16:36:14.282Z,8.15
2022-09-24T16:38:41.638Z,10.93
2022-09-24T16:41:12.053Z,10.77
2022-09-24T16:43:39.065Z,12.07
2022-09-24T16:46:08.523Z,14.07
2022-09-24T16:48:36.448Z,8.32
2022-09-24T16:51:04.528Z,10.85
2022-09-24T16:53:31.944Z,7.10
2022-09-24T16:56:17.783Z,9.88
2022-09-24T16:58:46.133Z,11.52
2022-09-24T17:01:15.881Z,7.95
2022-09-24T17:03:43.202Z,7.72
2022-09-24T17:06:18.736Z,5.93
2022-09-24T17:09:04.832Z,12.07
2022-09-24T17:11:31.925Z,13.05
2022-09-24T17:14:00.232Z,12.40
2022-09-24T17:16:27.411Z,15.70
2022-09-24T17:18:54.599Z,13.48
2022-09-24T17:21:23.066Z,12.65
2022-09-24T17:23:51.114Z,10.43
2022-09-24T17:26:20.212Z,12.10
2022-09-24T17:28:49.036Z,13.02
2022-09-24T17:31:17.537Z,11.73
2022-09-24T17:33:45.246Z,13.62
2022-09-24T17:36:14.187Z,14.27
2022-09-24T17:38:41.811Z,14.05
2022-09-24T17:41:10.895Z,17.27
2022-09-24T17:43:39.319Z,17.77
2022-09-24T17:46:10.163Z,16.58
2022-09-24T17:48:46.259Z,14.27
2022-09-24T17:51:25.127Z,17.90
2022-09-24T17:53:54.694Z,13.75
2022-09-24T17:56:42.147Z,13.88
2022-09-24T17:59:11.557Z,12.77
2022-09-24T18:01:40.575Z,18.65
2022-09-24T18:04:19.904Z,15.63
2022-09-24T18:06:48.315Z,13.52
2022-09-24T18:09:17.183Z,12.05
2022-09-24T18:11:52.252Z,14.23
2022-09-24T18:14:21.377Z,13.50
2022-09-24T18:16:51.707Z,13.07
2022-09-24T18:19:19.115Z,11.23
2022-09-24T18:21:49.206Z,13.73
2022-09-24T18:24:16.681Z,12.50
2022-09-24T18:26:43.935Z,11.55
2022-09-24T18:29:13.903Z,12.27
2022-09-24T18:31:41.603Z,13.00
2022-09-24T18:34:09.948Z,15.82
2022-09-24T18:36:39.305Z,12.43
2022-09-24T18:39:08.551Z,14.85
2022-09-24T18:41:36.415Z,12.00
2022-09-24T18:44:04.551Z,13.65
2022-09-24T18:46:32.771Z,16.58
2022-09-24T18:49:00.525Z,15.10
2022-09-24T18:51:31.650Z,11.55
2022-09-24T18:53:59.395Z,10.45
2022-09-24T18:56:27.188Z,12.23
2022-09-24T18:58:59.118Z,15.85
2022-09-24T19:01:27.096Z,15.68
2022-09-24T19:03:55.456Z,12.45
2022-09-24T19:06:22.675Z,9.93
2022-09-24T19:08:49.753Z,8.25
2022-09-24T19:11:17.492Z,10.85
2022-09-24T19:13:49.202Z,6.93
2022-09-24T19:16:18.068Z,9.63
2022-09-24T19:18:45.227Z,8.52
2022-09-24T19:21:14.156Z,9.02
2022-09-24T19:23:49.570Z,7.72
2022-09-24T19:26:28.532Z,10.90
2022-09-24T19:28:56.200Z,15.07
2022-09-24T19:31:32.254Z,9.10
2022-09-24T19:34:03.125Z,9.75
2022-09-24T19:36:30.985Z,10.45
2022-09-24T19:38:58.021Z,7.93
2022-09-24T19:41:26.523Z,10.18
2022-09-24T19:44:08.335Z,9.10
2022-09-24T19:46:37.162Z,10.10
2022-09-24T19:49:04.245Z,6.87
2022-09-24T19:51:32.901Z,9.73
2022-09-24T19:54:02.380Z,8.18
2022-09-24T19:56:31.825Z,6.45
2022-09-24T19:59:00.889Z,6.80
2022-09-24T20:01:30.723Z,9.88
2022-09-24T20:04:00.310Z,10.98
2022-09-24T20:06:29.042Z,9.23
2022-09-24T20:08:57.187Z,9.40
2022-09-24T20:11:25.725Z,8.40
2022-09-24T20:13:55.419Z,8.55
2022-09-24T20:16:26.302Z,10.05
2022-09-24T20:18:57.621Z,7.32
2022-09-24T20:21:27.692Z,6.35
2022-09-24T20:23:56.815Z,6.82
2022-09-24T20:26:43.355Z,6.55
2022-09-24T20:29:12.245Z,5.75
2022-09-24T20:31:52.892Z,8.75
2022-09-24T20:34:25.793Z,5.80
2022-09-24T20:36:52.766Z,7.35
2022-09-24T20:39:20.677Z,5.85
2022-09-24T20:41:49.319Z,7.40
2022-09-24T20:44:16.629Z,5.97
2022-09-24T20:46:43.884Z,10.38
2022-09-24T20:49:25.743Z,6.55
2022-09-24T20:51:57.119Z,6.03
2022-09-24T20:54:25.649Z,9.32
2022-09-24T20:56:52.994Z,8.70
2022-09-24T20:59:20.208Z,7.72
2022-09-24T21:01:48.117Z,7.30
2022-09-24T21:04:20.039Z,8.10
2022-09-24T21:06:48.084Z,7.78
2022-09-24T21:09:16.907Z,10.00
2022-09-24T21:11:44.053Z,6.25
2022-09-24T21:14:12.395Z,9.52
2022-09-24T21:16:40.224Z,7.15
2022-09-24T21:19:07.922Z,8.90
2022-09-24T21:21:38.949Z,7.22
2022-09-24T21:24:11.628Z,8.38
2022-09-24T21:26:39.337Z,8.20
2022-09-24T21:29:20.809Z,7.20
2022-09-24T21:31:48.647Z,7.22
2022-09-24T21:34:19.429Z,8.90
2022-09-24T21:36:46.545Z,7.12
2022-09-24T21:39:16.685Z,6.75
2022-09-24T21:41:45.133Z,6.82
2022-09-24T21:44:14.361Z,6.65
2022-09-24T21:46:43.742Z,9.82
2022-09-24T21:49:11.451Z,8.20
2022-09-24T21:51:39.461Z,7.45
2022-09-24T21:54:08.737Z,10.35
2022-09-24T21:56:36.398Z,5.93
2022-09-24T21:59:26.951Z,15.45
2022-09-24T22:01:55.404Z,11.00
2022-09-24T22:04:22.863Z,8.13
2022-09-24T22:06:51.001Z,10.93
2022-09-24T22:09:18.593Z,6.80
2022-09-24T22:11:46.335Z,5.82
2022-09-24T22:14:13.897Z,7.18
2022-09-24T22:16:41.058Z,7.10
2022-09-24T22:19:09.399Z,7.53
2022-09-24T22:21:36.735Z,8.50
2022-09-24T22:24:04.990Z,6.90
2022-09-24T22:26:32.687Z,8.02
2022-09-24T22:28:59.714Z,8.23
2022-09-24T22:31:27.019Z,9.32
2022-09-24T22:34:13.009Z,12.48
2022-09-24T22:36:40.579Z,8.77
2022-09-24T22:39:08.000Z,7.70
2022-09-24T22:41:37.845Z,7.80
2022-09-24T22:44:04.899Z,10.27
2022-09-24T22:46:33.269Z,5.57
2022-09-24T22:49:00.378Z,8.52
2022-09-24T22:51:27.528Z,9.27
2022-09-24T22:53:56.237Z,6.90
2022-09-24T22:56:25.020Z,10.18
2022-09-24T22:58:57.016Z,9.20
2022-09-24T23:01:35.778Z,7.78
2022-09-24T23:04:03.214Z,7.45
2022-09-24T23:06:32.837Z,9.48
2022-09-24T23:09:00.410Z,11.15
2022-09-24T23:11:29.670Z,8.88
2022-09-24T23:14:02.651Z,8.25
2022-09-24T23:16:32.012Z,11.38
2022-09-24T23:19:01.291Z,7.05
2022-09-24T23:21:30.464Z,7.53
2022-09-24T23:23:59.919Z,10.73
2022-09-24T23:26:27.856Z,6.55
2022-09-24T23:28:56.000Z,8.00
2022-09-24T23:31:32.072Z,9.75
2022-09-24T23:34:01.276Z,9.70
2022-09-24T23:36:31.139Z,7.50
2022-09-24T23:38:59.072Z,7.80
2022-09-24T23:41:26.777Z,6.60
2022-09-24T23:43:53.768Z,14.15
2022-09-24T23:46:20.932Z,8.27
2022-09-24T23:48:48.313Z,9.15
2022-09-24T23:51:15.290Z,7.37
2022-09-24T23:53:42.288Z,7.65
2022-09-24T23:56:09.662Z,6.82
2022-09-24T23:58:36.840Z,8.68
